Time;durP1;ratioP1;P1;durP2;ratioP2;P2;SDS_P1;SDS_P2;PMS_P1;PMS_P2;Temp;Humidity;BMP_temperature;BMP_pressure;BME280_temperature;BME280_humidity;BME280_pressure;Samples;Min_cycle;Max_cycle;Signal;HPM_P1;HPM_P2
2021/09/17 00:07:04;;;;;;;7.28;0.90;;;12.30;99.90;;;;;;20840231;28;20080;-47
2021/09/17 00:17:06;;;;;;;1.70;0.35;;;12.10;99.90;;;;;;20840216;28;20033;-48
2021/09/17 00:27:08;;;;;;;0.50;0.10;;;12.00;99.90;;;;;;20834542;28;20037;-47
2021/09/17 00:37:10;;;;;;;1.25;0.22;;;12.10;99.90;;;;;;20833839;28;20053;-49
2021/09/17 00:47:13;;;;;;;0.30;0.10;;;12.10;99.90;;;;;;20839039;28;20045;-48
2021/09/17 00:57:15;;;;;;;1.30;0.30;;;12.00;99.90;;;;;;20833496;28;20041;-50
2021/09/17 01:07:17;;;;;;;0.85;0.40;;;12.00;99.90;;;;;;20829962;28;20037;-49
2021/09/17 01:17:19;;;;;;;1.35;0.60;;;11.90;99.90;;;;;;20828949;28;20331;-51
2021/09/17 01:27:23;;;;;;;2.85;0.50;;;11.80;99.90;;;;;;20830435;28;20033;-49
2021/09/17 01:37:25;;;;;;;1.48;0.45;;;11.70;99.90;;;;;;20827738;28;20049;-49
2021/09/17 01:47:27;;;;;;;2.90;0.40;;;11.70;99.90;;;;;;20861720;28;20037;-49
2021/09/17 01:57:29;;;;;;;0.60;0.40;;;11.70;99.90;;;;;;20908096;28;20091;-47
2021/09/17 02:07:30;;;;;;;18.25;0.80;;;11.70;99.90;;;;;;20909206;28;20428;-48
2021/09/17 02:17:32;;;;;;;0.70;0.30;;;11.70;99.90;;;;;;20907391;28;20036;-48
2021/09/17 02:27:34;;;;;;;0.88;0.50;;;11.70;99.90;;;;;;20906779;28;20094;-48
2021/09/17 02:37:36;;;;;;;0.70;0.30;;;11.70;99.90;;;;;;20836929;28;20111;-50
2021/09/17 02:47:38;;;;;;;0.40;0.13;;;11.80;99.90;;;;;;20901259;28;20384;-48
2021/09/17 02:57:40;;;;;;;0.40;0.20;;;11.90;99.90;;;;;;20904643;28;20028;-49
2021/09/17 03:07:43;;;;;;;1.52;0.10;;;12.00;99.90;;;;;;20921162;28;20032;-49
2021/09/17 03:17:45;;;;;;;0.40;0.20;;;11.90;99.90;;;;;;20919191;28;20392;-51
2021/09/17 03:27:47;;;;;;;0.10;0.00;;;11.80;99.90;;;;;;20920552;28;20029;-49
2021/09/17 03:37:49;;;;;;;0.20;0.10;;;11.80;99.90;;;;;;20845870;28;20045;-49
2021/09/17 03:47:50;;;;;;;0.40;0.10;;;11.80;99.90;;;;;;20833515;28;20052;-49
2021/09/17 03:57:52;;;;;;;0.00;0.00;;;11.70;99.90;;;;;;20833650;28;20037;-50
2021/09/17 04:07:54;;;;;;;0.10;0.00;;;11.70;99.90;;;;;;20831471;28;20042;-51
2021/09/17 04:17:56;;;;;;;0.20;0.00;;;11.60;99.90;;;;;;20832121;28;20040;-50
2021/09/17 04:27:58;;;;;;;0.05;0.00;;;11.50;99.90;;;;;;20831565;28;20099;-52
2021/09/17 04:38:00;;;;;;;0.00;0.00;;;11.50;99.90;;;;;;20829335;28;20049;-49
2021/09/17 04:48:14;;;;;;;0.00;0.00;;;11.50;99.90;;;;;;20829615;28;20037;-50
2021/09/17 04:58:16;;;;;;;0.10;0.08;;;11.50;99.90;;;;;;20828424;28;20408;-49
2021/09/17 05:08:18;;;;;;;0.10;0.00;;;11.50;99.90;;;;;;20827896;28;20037;-48
2021/09/17 05:18:20;;;;;;;0.60;0.10;;;11.40;99.90;;;;;;20827019;28;20104;-50
2021/09/17 05:28:22;;;;;;;0.65;0.15;;;11.40;99.90;;;;;;20824964;28;20049;-49
2021/09/17 05:38:26;;;;;;;0.00;0.00;;;11.30;99.90;;;;;;20824749;28;20151;-50
2021/09/17 05:48:28;;;;;;;0.65;0.00;;;11.30;99.90;;;;;;20866512;28;20033;-48
2021/09/17 05:58:31;;;;;;;0.10;0.10;;;11.40;99.90;;;;;;20906237;28;20025;-49
2021/09/17 06:08:33;;;;;;;0.10;0.10;;;11.70;99.90;;;;;;20905643;28;20324;-50
2021/09/17 06:18:36;;;;;;;0.10;0.10;;;12.10;99.90;;;;;;20904041;28;20021;-53
2021/09/17 06:28:37;;;;;;;0.28;0.10;;;12.50;99.90;;;;;;20903705;28;20044;-50
2021/09/17 06:38:40;;;;;;;0.73;0.22;;;12.70;99.90;;;;;;20828840;28;20405;-54
2021/09/17 06:48:43;;;;;;;1.73;0.38;;;12.90;99.90;;;;;;20902647;28;20400;-52
2021/09/17 06:58:45;;;;;;;1.30;0.30;;;13.20;99.90;;;;;;20902527;28;20534;-51
2021/09/17 07:08:47;;;;;;;0.32;0.22;;;13.60;99.90;;;;;;20902566;28;20056;-51
2021/09/17 07:18:49;;;;;;;0.63;0.20;;;14.20;99.90;;;;;;20901567;28;20033;-49
2021/09/17 07:28:51;;;;;;;0.40;0.20;;;15.00;99.90;;;;;;20901468;28;20377;-49
2021/09/17 07:38:52;;;;;;;0.63;0.20;;;15.80;99.90;;;;;;20818884;28;20057;-50
2021/09/17 07:48:54;;;;;;;2.50;0.20;;;15.50;99.90;;;;;;20826488;28;20560;-53
2021/09/17 07:58:56;;;;;;;0.25;0.10;;;15.40;99.90;;;;;;20832922;28;20084;-53
2021/09/17 08:08:58;;;;;;;0.60;0.30;;;15.40;99.90;;;;;;20831599;28;20424;-54
2021/09/17 08:19:00;;;;;;;0.00;0.00;;;15.80;99.90;;;;;;20830691;28;20307;-52
2021/09/17 08:29:02;;;;;;;0.13;0.10;;;16.20;99.90;;;;;;20830300;28;20436;-50
2021/09/17 08:39:15;;;;;;;0.20;0.10;;;16.50;99.90;;;;;;20829257;28;20046;-50
2021/09/17 08:49:18;;;;;;;0.10;0.10;;;16.80;99.90;;;;;;20830226;28;20033;-53
2021/09/17 08:59:21;;;;;;;0.70;0.17;;;16.90;99.90;;;;;;20827783;28;20060;-50
2021/09/17 09:09:24;;;;;;;0.10;0.10;;;17.20;99.90;;;;;;20827234;28;20451;-50
2021/09/17 09:19:28;;;;;;;0.10;0.10;;;17.50;99.90;;;;;;20826825;28;20041;-53
2021/09/17 09:29:30;;;;;;;0.73;0.40;;;18.30;99.90;;;;;;20825588;28;20033;-49
2021/09/17 09:39:49;;;;;;;0.88;0.43;;;19.70;99.90;;;;;;20824986;28;20099;-50
2021/09/17 09:50:04;;;;;;;1.07;0.30;;;20.10;99.90;;;;;;20877399;28;20057;-52
2021/09/17 10:00:09;;;;;;;0.40;0.32;;;21.20;99.90;;;;;;20905973;28;20102;-51
2021/09/17 10:10:16;;;;;;;0.30;0.28;;;21.30;99.90;;;;;;20904797;28;20040;-50
2021/09/17 10:20:19;;;;;;;0.50;0.25;;;21.30;99.90;;;;;;20904769;28;20079;-48
2021/09/17 10:30:29;;;;;;;0.77;0.40;;;22.00;99.90;;;;;;20893000;28;20068;-50
2021/09/17 10:40:41;;;;;;;0.40;0.40;;;22.70;99.90;;;;;;20841940;28;20049;-51
2021/09/17 10:51:04;;;;;;;1.23;0.60;;;22.90;99.90;;;;;;20903492;28;20041;-49
2021/09/17 11:01:11;;;;;;;2.03;0.95;;;22.70;99.90;;;;;;20902961;28;20033;-50
2021/09/17 11:11:42;;;;;;;1.20;1.00;;;22.80;99.90;;;;;;20902243;28;20370;-49
2021/09/17 11:21:47;;;;;;;1.00;0.70;;;23.70;99.90;;;;;;20907026;28;20033;-54
2021/09/17 11:31:57;;;;;;;2.63;1.20;;;24.50;99.90;;;;;;20894225;28;20378;-53
2021/09/17 11:42:07;;;;;;;3.05;2.05;;;24.40;99.90;;;;;;20834072;28;20037;-52
2021/09/17 11:52:21;;;;;;;2.72;2.00;;;23.70;99.90;;;;;;20833411;28;20053;-53
2021/09/17 12:02:26;;;;;;;6.00;3.03;;;21.00;99.90;;;;;;20832393;28;20084;-50
2021/09/17 12:12:33;;;;;;;3.58;2.55;;;20.10;99.90;;;;;;20832120;28;20469;-52
2021/09/17 12:22:56;;;;;;;3.10;1.85;;;20.00;99.90;;;;;;20830939;28;20029;-49
2021/09/17 12:33:21;;;;;;;4.00;1.90;;;22.00;99.90;;;;;;20829432;28;20038;-50
2021/09/17 12:43:33;;;;;;;0.90;0.68;;;23.40;99.90;;;;;;20828982;28;20057;-52
2021/09/17 12:53:38;;;;;;;0.85;0.20;;;23.60;99.90;;;;;;20828512;28;20079;-51
2021/09/17 13:03:40;;;;;;;0.35;0.20;;;23.60;97.00;;;;;;20827767;28;20091;-53
2021/09/17 13:13:42;;;;;;;1.05;0.47;;;23.70;96.80;;;;;;20827511;28;20045;-52
2021/09/17 13:23:45;;;;;;;1.10;0.30;;;24.10;96.00;;;;;;20826173;28;20088;-50
2021/09/17 13:33:46;;;;;;;0.77;0.50;;;23.70;94.50;;;;;;20825058;28;20473;-55
2021/09/17 13:43:48;;;;;;;0.82;0.63;;;23.20;95.10;;;;;;20827765;28;20037;-50
2021/09/17 13:53:50;;;;;;;1.17;1.00;;;23.30;98.10;;;;;;20905783;28;20025;-51
2021/09/17 14:03:52;;;;;;;4.22;2.20;;;23.30;96.40;;;;;;20905342;28;20063;-57
2021/09/17 14:13:55;;;;;;;3.67;2.20;;;22.50;98.70;;;;;;20905190;28;20386;-54
2021/09/17 14:23:57;;;;;;;7.00;3.15;;;21.70;99.90;;;;;;20904482;28;20039;-54
2021/09/17 14:33:59;;;;;;;6.25;3.60;;;21.30;99.90;;;;;;20862664;28;20076;-54
2021/09/17 14:44:01;;;;;;;7.00;3.97;;;20.60;99.90;;;;;;20870809;28;20044;-51
2021/09/17 14:54:03;;;;;;;8.80;5.25;;;20.30;99.90;;;;;;20905646;28;20048;-54
2021/09/17 15:04:06;;;;;;;11.38;6.10;;;20.00;99.90;;;;;;20920167;28;20033;-51
2021/09/17 15:14:08;;;;;;;7.60;5.65;;;19.30;99.90;;;;;;20919108;28;20028;-51
2021/09/17 15:24:10;;;;;;;9.85;6.75;;;19.00;99.90;;;;;;20917900;28;20044;-52
2021/09/17 15:34:13;;;;;;;13.25;8.25;;;18.70;99.90;;;;;;20874469;28;20029;-54
2021/09/17 15:44:15;;;;;;;12.85;7.88;;;18.40;99.90;;;;;;20833698;28;20099;-51
2021/09/17 15:54:17;;;;;;;13.02;8.07;;;18.30;99.90;;;;;;20833280;28;20513;-50
2021/09/17 16:04:20;;;;;;;13.55;8.82;;;18.40;99.90;;;;;;20831459;28;20060;-51
2021/09/17 16:14:22;;;;;;;17.50;9.88;;;18.20;99.90;;;;;;20831592;28;20037;-51
2021/09/17 16:24:23;;;;;;;13.25;8.82;;;17.70;99.90;;;;;;20830880;28;20413;-53
2021/09/17 16:34:27;;;;;;;15.82;10.55;;;17.20;99.90;;;;;;20830229;28;20037;-53
2021/09/17 16:44:30;;;;;;;21.85;12.50;;;16.90;99.90;;;;;;20828920;28;20096;-55
2021/09/17 16:54:32;;;;;;;16.35;11.35;;;16.80;99.90;;;;;;20828669;28;20045;-51
2021/09/17 17:04:42;;;;;;;18.67;11.65;;;16.30;99.90;;;;;;20828034;28;20516;-54
2021/09/17 17:14:44;;;;;;;;;;;15.80;99.90;;;;;;20827591;28;20080;-56
2021/09/17 17:24:46;;;;;;;26.67;14.75;;;15.30;99.90;;;;;;20823724;28;19924;-51
2021/09/17 17:34:54;;;;;;;25.38;16.08;;;15.20;99.90;;;;;;20825235;28;20037;-52
2021/09/17 17:44:57;;;;;;;16.50;10.32;;;14.80;99.90;;;;;;20837810;28;20041;-55
2021/09/17 17:55:00;;;;;;;16.17;9.93;;;14.10;99.90;;;;;;20905990;28;20059;-51
2021/09/17 18:05:02;;;;;;;15.05;8.77;;;13.60;99.90;;;;;;20905819;28;20033;-51
2021/09/17 18:15:06;;;;;;;14.27;9.13;;;13.20;99.90;;;;;;20905303;28;20029;-51
2021/09/17 18:25:12;;;;;;;15.55;10.13;;;12.70;99.90;;;;;;20904431;28;20078;-50
2021/09/17 18:35:15;;;;;;;14.75;8.32;;;12.40;99.90;;;;;;20852186;28;20091;-51
2021/09/17 18:45:17;;;;;;;16.58;10.10;;;12.30;99.90;;;;;;20881133;28;20049;-50
2021/09/17 18:55:22;;;;;;;16.02;9.68;;;12.60;99.90;;;;;;20902858;28;20140;-52
2021/09/17 19:05:24;;;;;;;16.15;10.75;;;13.10;99.90;;;;;;20901430;28;20037;-52
2021/09/17 19:15:29;;;;;;;25.73;14.73;;;13.10;99.90;;;;;;20902449;28;20037;-52
2021/09/17 19:25:33;;;;;;;28.15;16.17;;;12.80;99.90;;;;;;20900940;28;20447;-51
2021/09/17 19:35:36;;;;;;;29.45;16.33;;;12.50;99.90;;;;;;20847131;28;20496;-53
2021/09/17 19:45:41;;;;;;;30.50;16.77;;;12.20;99.90;;;;;;20828416;28;20104;-50
2021/09/17 19:55:45;;;;;;;28.70;15.80;;;12.00;99.90;;;;;;20834615;28;20060;-51
2021/09/17 20:05:48;;;;;;;23.88;13.35;;;11.90;99.90;;;;;;20832240;28;20034;-50
2021/09/17 20:15:51;;;;;;;21.92;10.70;;;12.10;99.90;;;;;;20831656;28;20035;-53
2021/09/17 20:25:53;;;;;;;13.57;8.23;;;12.40;99.90;;;;;;20830841;28;20048;-52
2021/09/17 20:35:56;;;;;;;11.63;7.30;;;12.40;99.90;;;;;;20828911;28;20037;-51
2021/09/17 20:45:58;;;;;;;10.18;6.07;;;12.30;99.90;;;;;;20829232;28;20060;-50
2021/09/17 20:56:01;;;;;;;9.00;5.40;;;12.30;99.90;;;;;;20827270;28;20033;-51
2021/09/17 21:06:04;;;;;;;9.93;6.35;;;12.30;99.90;;;;;;20826795;28;20072;-53
2021/09/17 21:16:06;;;;;;;8.65;5.22;;;12.50;99.90;;;;;;20827488;28;20116;-51
2021/09/17 21:26:08;;;;;;;8.27;5.15;;;12.70;99.90;;;;;;20826253;28;20055;-51
2021/09/17 21:36:10;;;;;;;11.18;6.50;;;12.80;99.90;;;;;;20825077;28;20073;-54
2021/09/17 21:46:12;;;;;;;11.43;6.63;;;12.90;99.90;;;;;;20848149;28;20052;-52
2021/09/17 21:56:14;;;;;;;11.85;6.20;;;13.00;99.90;;;;;;20907269;28;20033;-52
2021/09/17 22:06:15;;;;;;;10.05;6.22;;;13.00;99.90;;;;;;20905062;28;20033;-53
2021/09/17 22:16:17;;;;;;;9.48;6.20;;;13.20;99.90;;;;;;20904776;28;20025;-53
2021/09/17 22:26:19;;;;;;;8.80;5.53;;;13.20;99.90;;;;;;20904331;28;20059;-55
2021/09/17 22:36:22;;;;;;;9.10;6.15;;;13.20;99.90;;;;;;20842635;28;20032;-53
2021/09/17 22:46:24;;;;;;;10.45;7.13;;;13.10;99.90;;;;;;20890381;28;20356;-51
2021/09/17 22:56:26;;;;;;;9.82;6.72;;;13.10;99.90;;;;;;20901789;28;20040;-54
2021/09/17 23:06:27;;;;;;;9.20;6.07;;;13.20;99.90;;;;;;20900979;28;20105;-51
2021/09/17 23:16:30;;;;;;;12.38;8.07;;;13.30;99.90;;;;;;20907235;28;20033;-55
2021/09/17 23:26:32;;;;;;;12.57;8.10;;;13.30;99.90;;;;;;20917829;28;20087;-51
2021/09/17 23:36:34;;;;;;;13.75;8.45;;;13.30;99.90;;;;;;20854632;28;20038;-51
2021/09/17 23:46:36;;;;;;;16.08;8.70;;;13.20;99.90;;;;;;20834226;28;20030;-53
2021/09/17 23:56:38;;;;;;;16.40;10.20;;;12.70;99.90;;;;;;20832072;28;20079;-52
